Time;durP1;ratioP1;P1;durP2;ratioP2;P2;SDS_P1;SDS_P2;PMS_P1;PMS_P2;Temp;Humidity;BMP_temperature;BMP_pressure;BME280_temperature;BME280_humidity;BME280_pressure;Samples;Min_cycle;Max_cycle;Signal;HPM_P1;HPM_P2
2023/10/23 00:00:20;;;;;;;8.02;6.00;;;;;;;;;;5126741;28;20055;-39
2023/10/23 00:02:47;;;;;;;6.85;5.70;;;;;;;;;;5127283;28;20075;-37
2023/10/23 00:05:14;;;;;;;6.70;5.22;;;;;;;;;;5126051;28;20023;-38
2023/10/23 00:07:40;;;;;;;5.40;4.90;;;;;;;;;;5126703;28;20092;-40
2023/10/23 00:10:07;;;;;;;7.20;4.55;;;;;;;;;;5125660;28;20047;-37
2023/10/23 00:12:34;;;;;;;6.57;4.47;;;;;;;;;;5125621;28;20311;-35
2023/10/23 00:15:01;;;;;;;8.63;4.78;;;;;;;;;;5126758;28;20027;-37
2023/10/23 00:17:27;;;;;;;5.82;4.80;;;;;;;;;;5126723;28;20023;-41
2023/10/23 00:19:54;;;;;;;5.88;4.50;;;;;;;;;;5126483;28;20023;-40
2023/10/23 00:22:21;;;;;;;7.60;4.90;;;;;;;;;;5121285;28;20107;-39
2023/10/23 00:24:47;;;;;;;8.25;4.60;;;;;;;;;;5113397;28;20097;-41
2023/10/23 00:27:15;;;;;;;6.00;5.03;;;;;;;;;;5119655;28;20020;-43
2023/10/23 00:29:42;;;;;;;7.80;5.35;;;;;;;;;;5123101;28;20038;-45
2023/10/23 00:32:09;;;;;;;9.20;5.90;;;;;;;;;;5118489;28;20061;-42
2023/10/23 00:34:36;;;;;;;6.55;5.38;;;;;;;;;;5119382;28;20055;-37
2023/10/23 00:37:03;;;;;;;6.78;5.57;;;;;;;;;;5100511;28;20142;-45
2023/10/23 00:39:30;;;;;;;13.68;6.10;;;;;;;;;;5116095;28;20060;-37
2023/10/23 00:41:57;;;;;;;18.05;6.80;;;;;;;;;;5110109;28;20346;-49
2023/10/23 00:44:24;;;;;;;14.07;6.03;;;;;;;;;;5121554;28;20038;-44
2023/10/23 00:46:53;;;;;;;12.18;6.50;;;;;;;;;;5123552;28;20351;-53
2023/10/23 00:49:26;;;;;;;7.97;6.45;;;;;;;;;;5116684;28;20027;-42
2023/10/23 00:51:53;;;;;;;7.22;5.85;;;;;;;;;;5109014;28;20027;-40
2023/10/23 00:54:20;;;;;;;8.85;5.05;;;;;;;;;;5117230;28;20319;-39
2023/10/23 00:56:54;;;;;;;5.78;4.85;;;;;;;;;;5096012;28;20077;-42
2023/10/23 00:59:28;;;;;;;6.78;4.97;;;;;;;;;;5115178;28;20019;-42
2023/10/23 01:01:56;;;;;;;7.13;5.43;;;;;;;;;;5125533;28;20081;-38
2023/10/23 01:04:23;;;;;;;6.50;5.38;;;;;;;;;;5123471;28;20034;-42
2023/10/23 01:06:50;;;;;;;7.47;5.18;;;;;;;;;;5115573;28;20055;-40
2023/10/23 01:09:17;;;;;;;8.77;5.10;;;;;;;;;;5104620;28;20208;-43
2023/10/23 01:11:45;;;;;;;7.63;4.97;;;;;;;;;;5105161;28;20249;-43
2023/10/23 01:14:12;;;;;;;6.20;4.90;;;;;;;;;;5124140;27;20026;-44
2023/10/23 01:16:41;;;;;;;7.05;4.30;;;;;;;;;;5126136;28;20083;-39
2023/10/23 01:19:09;;;;;;;5.65;4.30;;;;;;;;;;5125402;28;20032;-38
2023/10/23 01:21:35;;;;;;;10.68;4.68;;;;;;;;;;5117569;28;20200;-40
2023/10/23 01:24:06;;;;;;;6.05;4.30;;;;;;;;;;5119247;28;20019;-43
2023/10/23 01:26:33;;;;;;;8.15;4.60;;;;;;;;;;5123644;28;20035;-41
2023/10/23 01:28:59;;;;;;;7.97;5.07;;;;;;;;;;5114183;28;20248;-45
2023/10/23 01:31:26;;;;;;;7.47;5.05;;;;;;;;;;5105266;28;20216;-41
2023/10/23 01:33:54;;;;;;;5.82;4.82;;;;;;;;;;5106830;28;20411;-40
2023/10/23 01:36:21;;;;;;;8.43;4.50;;;;;;;;;;5115803;28;20022;-44
2023/10/23 01:38:48;;;;;;;8.10;4.65;;;;;;;;;;5124994;28;20016;-40
2023/10/23 01:41:14;;;;;;;8.13;4.38;;;;;;;;;;5118898;28;20060;-39
2023/10/23 01:43:41;;;;;;;9.20;4.65;;;;;;;;;;5125077;28;20011;-40
2023/10/23 01:46:10;;;;;;;8.70;4.60;;;;;;;;;;5118746;28;20035;-42
2023/10/23 01:48:38;;;;;;;12.40;5.05;;;;;;;;;;5108783;28;20084;-45
2023/10/23 01:51:05;;;;;;;7.13;4.85;;;;;;;;;;5104284;28;20027;-41
2023/10/23 01:53:32;;;;;;;8.65;5.00;;;;;;;;;;5103861;28;20020;-44
2023/10/23 01:56:05;;;;;;;6.38;4.80;;;;;;;;;;5104465;28;20035;-39
2023/10/23 01:58:31;;;;;;;5.30;4.53;;;;;;;;;;5104575;28;20012;-42
2023/10/23 02:00:58;;;;;;;7.65;4.22;;;;;;;;;;5110495;28;20051;-41
2023/10/23 02:03:27;;;;;;;6.90;4.47;;;;;;;;;;5124601;28;20062;-38
2023/10/23 02:05:56;;;;;;;7.03;4.35;;;;;;;;;;5118365;28;20367;-40
2023/10/23 02:08:23;;;;;;;8.10;4.35;;;;;;;;;;5106573;28;20088;-43
2023/10/23 02:10:51;;;;;;;8.65;5.18;;;;;;;;;;5104546;28;20020;-47
2023/10/23 02:13:17;;;;;;;8.20;4.60;;;;;;;;;;5086167;28;20334;-43
2023/10/23 02:15:44;;;;;;;6.05;4.90;;;;;;;;;;5086062;28;20020;-44
2023/10/23 02:18:11;;;;;;;12.75;7.20;;;;;;;;;;5104126;28;20032;-44
2023/10/23 02:20:38;;;;;;;15.02;9.00;;;;;;;;;;5103971;28;20028;-45
2023/10/23 02:23:04;;;;;;;19.83;9.52;;;;;;;;;;5103558;28;20040;-40
2023/10/23 02:25:31;;;;;;;11.27;7.93;;;;;;;;;;5103986;28;20032;-50
2023/10/23 02:27:58;;;;;;;14.48;7.13;;;;;;;;;;5115280;28;20088;-42
2023/10/23 02:30:25;;;;;;;10.00;6.25;;;;;;;;;;5111362;28;20031;-42
2023/10/23 02:32:51;;;;;;;10.95;6.60;;;;;;;;;;5121497;28;20031;-39
2023/10/23 02:35:19;;;;;;;8.00;5.55;;;;;;;;;;5117569;28;20022;-40
2023/10/23 02:37:46;;;;;;;7.82;5.53;;;;;;;;;;5129056;28;20069;-43
2023/10/23 02:40:13;;;;;;;7.22;5.57;;;;;;;;;;5128609;28;20307;-42
2023/10/23 02:42:40;;;;;;;9.30;5.20;;;;;;;;;;5128754;28;20016;-40
2023/10/23 02:45:09;;;;;;;9.88;5.82;;;;;;;;;;5110159;28;20038;-37
2023/10/23 02:47:37;;;;;;;5.70;4.82;;;;;;;;;;5127952;28;20279;-44
2023/10/23 02:50:04;;;;;;;7.40;4.93;;;;;;;;;;5121759;28;20028;-43
2023/10/23 02:52:31;;;;;;;6.47;4.70;;;;;;;;;;5111478;28;20023;-45
2023/10/23 02:54:57;;;;;;;8.02;4.90;;;;;;;;;;5111691;28;20046;-42
2023/10/23 02:57:24;;;;;;;6.55;4.45;;;;;;;;;;5120830;27;20019;-41
2023/10/23 02:59:51;;;;;;;9.27;4.65;;;;;;;;;;5126989;28;20061;-46
2023/10/23 03:02:19;;;;;;;9.15;4.63;;;;;;;;;;5128319;28;20253;-40
2023/10/23 03:04:46;;;;;;;6.85;4.53;;;;;;;;;;5128186;28;20083;-41
2023/10/23 03:07:13;;;;;;;9.00;4.57;;;;;;;;;;5128305;28;20026;-44
2023/10/23 03:09:39;;;;;;;8.23;4.25;;;;;;;;;;5128007;28;20062;-42
2023/10/23 03:12:06;;;;;;;5.47;3.85;;;;;;;;;;5126697;28;20326;-41
2023/10/23 03:14:33;;;;;;;9.60;3.80;;;;;;;;;;5128282;28;20307;-44
2023/10/23 03:16:59;;;;;;;6.18;3.53;;;;;;;;;;5127982;28;20047;-45
2023/10/23 03:19:26;;;;;;;7.63;3.90;;;;;;;;;;5128017;28;20369;-37
2023/10/23 03:21:53;;;;;;;7.28;4.10;;;;;;;;;;5127820;27;20200;-41
2023/10/23 03:24:20;;;;;;;5.20;3.92;;;;;;;;;;5127073;28;20346;-42
2023/10/23 03:26:46;;;;;;;7.63;3.53;;;;;;;;;;5127810;28;20330;-40
2023/10/23 03:29:13;;;;;;;5.63;3.28;;;;;;;;;;5126144;28;20101;-40
2023/10/23 03:31:40;;;;;;;8.10;3.63;;;;;;;;;;5127289;28;20028;-41
2023/10/23 03:34:07;;;;;;;10.07;3.50;;;;;;;;;;5127279;28;20024;-41
2023/10/23 03:36:35;;;;;;;7.43;3.40;;;;;;;;;;5126150;28;20028;-46
2023/10/23 03:39:02;;;;;;;7.30;3.05;;;;;;;;;;5125263;28;20027;-50
2023/10/23 03:41:29;;;;;;;5.22;3.50;;;;;;;;;;5124171;28;20026;-46
2023/10/23 03:43:55;;;;;;;6.90;3.42;;;;;;;;;;5106529;28;20030;-48
2023/10/23 03:46:24;;;;;;;7.38;3.63;;;;;;;;;;5123879;28;20409;-45
2023/10/23 03:48:52;;;;;;;9.27;3.72;;;;;;;;;;5125107;28;20030;-47
2023/10/23 03:51:21;;;;;;;6.22;3.80;;;;;;;;;;5125383;28;20102;-44
2023/10/23 03:53:47;;;;;;;11.43;3.85;;;;;;;;;;5127079;28;20073;-45
2023/10/23 03:56:14;;;;;;;9.40;4.10;;;;;;;;;;5127218;28;20023;-42
2023/10/23 03:58:44;;;;;;;7.63;3.40;;;;;;;;;;5127920;28;20079;-39
2023/10/23 04:01:12;;;;;;;10.18;3.80;;;;;;;;;;5126988;28;20107;-41
2023/10/23 04:03:38;;;;;;;8.98;3.63;;;;;;;;;;5127952;28;20048;-39
2023/10/23 04:06:05;;;;;;;7.15;4.00;;;;;;;;;;5109033;28;20020;-40
2023/10/23 04:08:32;;;;;;;6.57;3.80;;;;;;;;;;5127739;28;20031;-42
2023/10/23 04:10:59;;;;;;;7.95;4.20;;;;;;;;;;5127233;28;20222;-39
2023/10/23 04:13:26;;;;;;;8.35;4.25;;;;;;;;;;5127322;28;20039;-43
2023/10/23 04:15:56;;;;;;;7.47;3.67;;;;;;;;;;5126927;28;20028;-41
2023/10/23 04:18:24;;;;;;;7.28;3.95;;;;;;;;;;5127394;28;20083;-40
2023/10/23 04:20:51;;;;;;;6.10;3.47;;;;;;;;;;5126861;28;20204;-45
2023/10/23 04:23:18;;;;;;;7.22;3.60;;;;;;;;;;5127189;28;20031;-49
2023/10/23 04:25:54;;;;;;;8.75;3.70;;;;;;;;;;5126609;28;20024;-44
2023/10/23 04:28:21;;;;;;;5.90;3.40;;;;;;;;;;5126687;28;20333;-46
2023/10/23 04:30:48;;;;;;;8.27;3.47;;;;;;;;;;5126759;28;20223;-47
2023/10/23 04:33:32;;;;;;;9.50;3.95;;;;;;;;;;5126698;28;20030;-44
2023/10/23 04:36:00;;;;;;;7.15;4.53;;;;;;;;;;5126630;28;20047;-49
2023/10/23 04:38:28;;;;;;;6.70;4.53;;;;;;;;;;5126579;28;20023;-45
2023/10/23 04:40:55;;;;;;;7.70;4.43;;;;;;;;;;5126293;28;20064;-52
2023/10/23 04:43:22;;;;;;;8.10;4.07;;;;;;;;;;5126865;28;20020;-50
2023/10/23 04:45:48;;;;;;;8.27;4.22;;;;;;;;;;5126262;28;20381;-49
2023/10/23 04:48:15;;;;;;;7.78;3.80;;;;;;;;;;5126641;28;20079;-49
2023/10/23 04:50:42;;;;;;;5.68;3.55;;;;;;;;;;5126234;28;20023;-48
2023/10/23 04:53:08;;;;;;;7.63;3.55;;;;;;;;;;5126674;28;20032;-46
2023/10/23 04:55:36;;;;;;;6.72;3.45;;;;;;;;;;5126032;28;20184;-47
2023/10/23 04:58:03;;;;;;;6.28;3.30;;;;;;;;;;5125898;28;20016;-48
2023/10/23 05:00:30;;;;;;;9.95;3.47;;;;;;;;;;5125885;28;20123;-49
2023/10/23 05:02:57;;;;;;;3.83;2.80;;;;;;;;;;5126173;28;20031;-50
2023/10/23 05:05:23;;;;;;;7.78;3.10;;;;;;;;;;5125845;28;20016;-50
2023/10/23 05:07:50;;;;;;;8.23;2.97;;;;;;;;;;5126266;28;20024;-50
2023/10/23 05:10:17;;;;;;;4.60;3.00;;;;;;;;;;5126341;28;20055;-48
2023/10/23 05:12:45;;;;;;;7.25;3.15;;;;;;;;;;5125816;28;20015;-45
2023/10/23 05:15:12;;;;;;;9.05;3.15;;;;;;;;;;5125550;28;20073;-42
2023/10/23 05:17:39;;;;;;;7.20;2.95;;;;;;;;;;5125390;28;20031;-45
2023/10/23 05:20:06;;;;;;;6.25;3.15;;;;;;;;;;5125542;28;20031;-44
2023/10/23 05:22:32;;;;;;;8.20;3.10;;;;;;;;;;5125756;28;20224;-50
2023/10/23 05:24:59;;;;;;;4.88;3.08;;;;;;;;;;5125681;28;20028;-52
2023/10/23 05:27:26;;;;;;;9.93;3.25;;;;;;;;;;5125728;28;20016;-55
2023/10/23 05:29:52;;;;;;;9.57;3.00;;;;;;;;;;5125900;28;20088;-49
2023/10/23 05:32:19;;;;;;;10.15;2.97;;;;;;;;;;5125860;28;20134;-56
2023/10/23 05:34:46;;;;;;;7.85;2.70;;;;;;;;;;5125273;28;20022;-39
2023/10/23 05:37:13;;;;;;;7.60;2.88;;;;;;;;;;5125441;28;20031;-41
2023/10/23 05:39:40;;;;;;;8.60;3.10;;;;;;;;;;5125612;28;20065;-44
2023/10/23 05:42:07;;;;;;;7.57;3.05;;;;;;;;;;5125319;28;20322;-49
2023/10/23 05:44:34;;;;;;;7.13;2.80;;;;;;;;;;5125283;28;20038;-40
2023/10/23 05:47:00;;;;;;;9.35;3.00;;;;;;;;;;5125295;28;20077;-44
2023/10/23 05:49:29;;;;;;;10.00;2.97;;;;;;;;;;5125169;28;20016;-43
2023/10/23 05:51:55;;;;;;;9.48;2.70;;;;;;;;;;5125376;28;20027;-40
2023/10/23 05:54:22;;;;;;;6.55;2.63;;;;;;;;;;5125283;28;20036;-39
2023/10/23 05:56:48;;;;;;;6.82;2.65;;;;;;;;;;5125056;28;20335;-42
2023/10/23 05:59:15;;;;;;;7.88;2.47;;;;;;;;;;5124901;28;20032;-43
2023/10/23 06:01:42;;;;;;;9.00;3.38;;;;;;;;;;5124926;28;20039;-45
2023/10/23 06:04:09;;;;;;;14.95;3.10;;;;;;;;;;5124887;28;20023;-44
2023/10/23 06:06:35;;;;;;;11.65;2.85;;;;;;;;;;5125143;28;20031;-40
2023/10/23 06:09:04;;;;;;;6.68;2.83;;;;;;;;;;5124792;28;20040;-42
2023/10/23 06:11:30;;;;;;;7.22;2.63;;;;;;;;;;5124381;28;20020;-41
2023/10/23 06:13:57;;;;;;;8.65;3.03;;;;;;;;;;5125623;28;20072;-41
2023/10/23 06:16:25;;;;;;;5.60;2.70;;;;;;;;;;5125418;28;20091;-43
2023/10/23 06:18:51;;;;;;;9.48;3.28;;;;;;;;;;5125673;28;20031;-42
2023/10/23 06:21:18;;;;;;;4.75;2.65;;;;;;;;;;5125026;28;20035;-41
2023/10/23 06:23:45;;;;;;;6.82;2.55;;;;;;;;;;5125830;28;20143;-39
2023/10/23 06:26:11;;;;;;;8.18;2.67;;;;;;;;;;5124730;28;20015;-37
2023/10/23 06:28:38;;;;;;;17.83;3.10;;;;;;;;;;5125559;28;20023;-43
2023/10/23 06:31:08;;;;;;;45.17;5.18;;;;;;;;;;5125117;28;20079;-38
2023/10/23 06:33:35;;;;;;;39.88;4.93;;;;;;;;;;5125480;28;20309;-43
2023/10/23 06:36:03;;;;;;;29.00;3.85;;;;;;;;;;5124975;28;20031;-38
2023/10/23 06:38:30;;;;;;;27.25;4.18;;;;;;;;;;5124906;28;20027;-39
2023/10/23 06:41:02;;;;;;;21.52;3.97;;;;;;;;;;5124728;28;20023;-38
2023/10/23 06:43:28;;;;;;;;;;;;;;;;;;5125614;28;20089;-40
2023/10/23 06:45:57;;;;;;;10.65;3.30;;;;;;;;;;5124935;28;19907;-40
2023/10/23 06:48:24;;;;;;;14.23;3.25;;;;;;;;;;5125246;28;20023;-38
2023/10/23 06:50:50;;;;;;;32.13;4.78;;;;;;;;;;5124563;28;20032;-39
2023/10/23 06:53:17;;;;;;;17.42;3.38;;;;;;;;;;5124854;28;20035;-45
2023/10/23 06:55:48;;;;;;;22.48;3.45;;;;;;;;;;5124700;28;20121;-48
2023/10/23 06:58:14;;;;;;;19.60;3.28;;;;;;;;;;5124987;28;20027;-43
2023/10/23 07:00:42;;;;;;;9.93;3.13;;;;;;;;;;5124326;28;20056;-41
2023/10/23 07:03:08;;;;;;;15.82;3.13;;;;;;;;;;5124542;28;20191;-40
2023/10/23 07:05:35;;;;;;;14.15;3.25;;;;;;;;;;5124433;28;20035;-43
2023/10/23 07:08:03;;;;;;;10.15;2.58;;;;;;;;;;5124430;28;20051;-39
2023/10/23 07:10:32;;;;;;;12.65;3.13;;;;;;;;;;5124341;28;20030;-44
2023/10/23 07:13:00;;;;;;;10.00;2.72;;;;;;;;;;5124706;28;20035;-46
2023/10/23 07:15:27;;;;;;;8.57;2.50;;;;;;;;;;5124676;28;20039;-47
2023/10/23 07:17:53;;;;;;;8.88;3.03;;;;;;;;;;5124643;28;20027;-55
2023/10/23 07:20:20;;;;;;;8.30;2.75;;;;;;;;;;5124420;28;20066;-46
2023/10/23 07:22:47;;;;;;;9.38;2.85;;;;;;;;;;5128362;28;20132;-48
2023/10/23 07:25:13;;;;;;;9.38;2.80;;;;;;;;;;5128200;28;20030;-44
2023/10/23 07:27:40;;;;;;;10.10;2.70;;;;;;;;;;5128484;28;20028;-40
2023/10/23 07:30:07;;;;;;;10.68;3.05;;;;;;;;;;5128294;28;20066;-40
2023/10/23 07:32:37;;;;;;;7.00;2.78;;;;;;;;;;5128179;28;20234;-39
2023/10/23 07:35:04;;;;;;;8.23;2.60;;;;;;;;;;5128008;28;20028;-39
2023/10/23 07:37:32;;;;;;;10.82;2.67;;;;;;;;;;5127938;28;20133;-40
2023/10/23 07:39:59;;;;;;;5.88;2.38;;;;;;;;;;5128324;28;20145;-41
2023/10/23 07:42:27;;;;;;;9.85;2.97;;;;;;;;;;5127981;28;20031;-42
2023/10/23 07:44:53;;;;;;;8.48;2.40;;;;;;;;;;5128085;28;20043;-38
2023/10/23 07:47:20;;;;;;;6.95;2.47;;;;;;;;;;5127815;28;20234;-44
2023/10/23 07:49:47;;;;;;;7.88;2.60;;;;;;;;;;5127994;28;20028;-46
2023/10/23 07:52:13;;;;;;;8.80;2.55;;;;;;;;;;5127917;28;20065;-40
2023/10/23 07:54:40;;;;;;;8.23;2.75;;;;;;;;;;5127496;28;20015;-44
2023/10/23 07:57:07;;;;;;;9.60;2.58;;;;;;;;;;5128001;28;20024;-38
2023/10/23 07:59:33;;;;;;;8.38;2.50;;;;;;;;;;5127850;28;20043;-38
2023/10/23 08:02:00;;;;;;;12.50;2.85;;;;;;;;;;5127493;28;20040;-45
2023/10/23 08:04:27;;;;;;;8.38;2.55;;;;;;;;;;5127795;28;20062;-39
2023/10/23 08:06:53;;;;;;;6.82;2.67;;;;;;;;;;5127551;28;20034;-39
2023/10/23 08:09:20;;;;;;;5.03;2.78;;;;;;;;;;5127450;28;20031;-43
2023/10/23 08:11:47;;;;;;;8.68;3.00;;;;;;;;;;5127418;28;20031;-50
2023/10/23 08:14:13;;;;;;;6.80;2.50;;;;;;;;;;5126965;28;20388;-42
2023/10/23 08:16:40;;;;;;;8.07;2.92;;;;;;;;;;5126772;28;20011;-47
2023/10/23 08:19:07;;;;;;;10.55;3.05;;;;;;;;;;5127040;28;20059;-44
2023/10/23 08:21:33;;;;;;;8.52;2.78;;;;;;;;;;5126917;28;20027;-41
2023/10/23 08:24:00;;;;;;;8.75;3.15;;;;;;;;;;5127496;28;20031;-43
2023/10/23 08:26:27;;;;;;;10.00;2.72;;;;;;;;;;5127102;28;20027;-43
2023/10/23 08:28:53;;;;;;;5.28;3.13;;;;;;;;;;5127822;28;20046;-43
2023/10/23 08:31:20;;;;;;;7.55;2.58;;;;;;;;;;5126745;28;20026;-45
2023/10/23 08:33:47;;;;;;;9.18;2.90;;;;;;;;;;5125642;28;20030;-41
2023/10/23 08:36:14;;;;;;;6.95;2.80;;;;;;;;;;5127504;28;20055;-45
2023/10/23 08:38:40;;;;;;;8.18;2.58;;;;;;;;;;5127310;28;20012;-38
2023/10/23 08:41:11;;;;;;;7.88;2.85;;;;;;;;;;5127091;28;20100;-38
2023/10/23 08:43:40;;;;;;;4.93;2.42;;;;;;;;;;5127117;28;20034;-42
2023/10/23 08:46:08;;;;;;;8.43;2.88;;;;;;;;;;5126923;28;20027;-40
2023/10/23 08:48:36;;;;;;;8.40;2.72;;;;;;;;;;5127373;28;20036;-39
2023/10/23 08:51:04;;;;;;;8.57;2.75;;;;;;;;;;5126884;28;20279;-45
2023/10/23 08:53:34;;;;;;;7.70;2.88;;;;;;;;;;5126768;28;20187;-44
2023/10/23 08:56:04;;;;;;;6.07;3.10;;;;;;;;;;5126566;28;20208;-39
2023/10/23 08:58:35;;;;;;;6.47;2.80;;;;;;;;;;5126829;28;20058;-42
2023/10/23 09:01:03;;;;;;;8.50;2.85;;;;;;;;;;5126102;28;20092;-39
2023/10/23 09:03:32;;;;;;;6.40;2.58;;;;;;;;;;5126826;28;20304;-43
2023/10/23 09:05:58;;;;;;;6.43;2.83;;;;;;;;;;5126555;28;20036;-42
2023/10/23 09:08:32;;;;;;;7.07;2.85;;;;;;;;;;5126620;28;20035;-41
2023/10/23 09:11:02;;;;;;;6.88;2.50;;;;;;;;;;5126259;28;20072;-42
2023/10/23 09:13:33;;;;;;;5.80;2.55;;;;;;;;;;5126101;28;20031;-41
2023/10/23 09:16:00;;;;;;;8.48;3.20;;;;;;;;;;5125428;28;20026;-42
2023/10/23 09:18:27;;;;;;;9.55;3.05;;;;;;;;;;5125447;28;20052;-47
2023/10/23 09:20:55;;;;;;;8.27;2.97;;;;;;;;;;5125430;28;20266;-58
2023/10/23 09:23:22;;;;;;;7.60;2.60;;;;;;;;;;5125678;28;20083;-49
2023/10/23 09:25:56;;;;;;;8.45;2.65;;;;;;;;;;5125178;28;20030;-47
2023/10/23 09:28:23;;;;;;;10.57;3.38;;;;;;;;;;5125846;28;20094;-45
2023/10/23 09:30:50;;;;;;;10.88;3.10;;;;;;;;;;5125167;28;20069;-47
2023/10/23 09:33:16;;;;;;;6.68;2.50;;;;;;;;;;5125394;28;20024;-49
2023/10/23 09:35:43;;;;;;;9.82;2.85;;;;;;;;;;5125655;28;20031;-41
2023/10/23 09:38:13;;;;;;;8.13;3.08;;;;;;;;;;5107633;28;20030;-39
2023/10/23 09:40:42;;;;;;;8.63;2.35;;;;;;;;;;5125552;28;20020;-50
2023/10/23 09:43:09;;;;;;;4.80;2.47;;;;;;;;;;5125792;28;20046;-43
2023/10/23 09:45:36;;;;;;;8.25;2.40;;;;;;;;;;5124905;28;20071;-40
2023/10/23 09:48:04;;;;;;;8.88;2.75;;;;;;;;;;5125809;28;20019;-45
2023/10/23 09:50:30;;;;;;;9.15;2.80;;;;;;;;;;5125341;28;20039;-47
2023/10/23 09:52:58;;;;;;;6.25;2.70;;;;;;;;;;5125841;28;20034;-48
2023/10/23 09:55:28;;;;;;;6.38;2.67;;;;;;;;;;5125220;28;20023;-50
2023/10/23 09:57:56;;;;;;;7.72;2.97;;;;;;;;;;5125391;28;20095;-45
2023/10/23 10:00:24;;;;;;;6.13;3.03;;;;;;;;;;5125042;28;20059;-52
2023/10/23 10:02:55;;;;;;;8.40;2.90;;;;;;;;;;5125594;28;20031;-48
2023/10/23 10:05:25;;;;;;;7.35;3.22;;;;;;;;;;5124769;28;20042;-48
2023/10/23 10:07:58;;;;;;;8.77;3.45;;;;;;;;;;5124892;28;20031;-48
2023/10/23 10:10:27;;;;;;;9.70;3.05;;;;;;;;;;5124575;28;20080;-53
2023/10/23 10:12:55;;;;;;;11.82;3.40;;;;;;;;;;5125151;28;20038;-46
2023/10/23 10:15:23;;;;;;;7.57;3.30;;;;;;;;;;5125162;28;20024;-45
2023/10/23 10:17:51;;;;;;;9.65;3.47;;;;;;;;;;5124810;28;20115;-47
2023/10/23 10:20:22;;;;;;;10.32;3.85;;;;;;;;;;5124648;28;20020;-42
2023/10/23 10:22:54;;;;;;;9.60;3.78;;;;;;;;;;5124774;28;20026;-43
2023/10/23 10:25:21;;;;;;;9.20;3.67;;;;;;;;;;5124842;28;20036;-40
2023/10/23 10:27:57;;;;;;;8.55;3.40;;;;;;;;;;5125083;28;20031;-44
2023/10/23 10:30:42;;;;;;;8.82;3.67;;;;;;;;;;5124751;28;20059;-45
2023/10/23 10:33:26;;;;;;;11.63;4.10;;;;;;;;;;5125162;28;20215;-44
2023/10/23 10:35:56;;;;;;;8.15;3.50;;;;;;;;;;5125009;28;20031;-40
2023/10/23 10:38:24;;;;;;;11.82;3.33;;;;;;;;;;5125245;28;20083;-46
2023/10/23 10:40:56;;;;;;;6.95;3.28;;;;;;;;;;5118960;28;20039;-42
2023/10/23 10:43:23;;;;;;;12.13;3.90;;;;;;;;;;5117799;28;20272;-41
2023/10/23 10:45:50;;;;;;;8.18;3.67;;;;;;;;;;5110065;28;20039;-43
2023/10/23 10:48:17;;;;;;;8.10;3.80;;;;;;;;;;5119091;28;20039;-43
2023/10/23 10:50:45;;;;;;;7.05;3.17;;;;;;;;;;5123552;28;20031;-40
2023/10/23 10:53:14;;;;;;;7.45;3.17;;;;;;;;;;5124008;28;20087;-42
2023/10/23 10:55:43;;;;;;;5.93;3.20;;;;;;;;;;5123843;28;20030;-49
2023/10/23 10:58:11;;;;;;;11.65;3.10;;;;;;;;;;5128264;28;20028;-41
2023/10/23 11:00:38;;;;;;;8.15;3.50;;;;;;;;;;5127771;28;20055;-46
2023/10/23 11:03:05;;;;;;;11.15;3.20;;;;;;;;;;5125516;28;20204;-39
2023/10/23 11:05:37;;;;;;;10.18;3.35;;;;;;;;;;5126383;28;20042;-40
2023/10/23 11:08:04;;;;;;;13.30;5.25;;;;;;;;;;5127947;28;20034;-38
2023/10/23 11:10:31;;;;;;;10.23;5.80;;;;;;;;;;5127834;28;20253;-38
2023/10/23 11:12:59;;;;;;;12.60;5.25;;;;;;;;;;5127913;28;20235;-50
2023/10/23 11:15:26;;;;;;;9.18;4.80;;;;;;;;;;5127335;28;20035;-46
2023/10/23 11:17:53;;;;;;;16.50;4.65;;;;;;;;;;5126379;28;20288;-45
2023/10/23 11:20:19;;;;;;;9.02;4.57;;;;;;;;;;5125864;28;20307;-47
2023/10/23 11:22:50;;;;;;;11.35;4.90;;;;;;;;;;5125992;28;20027;-36
2023/10/23 11:25:17;;;;;;;11.50;6.63;;;;;;;;;;5126026;28;20236;-36
2023/10/23 11:27:46;;;;;;;11.52;4.55;;;;;;;;;;5125685;28;20232;-37
2023/10/23 11:30:13;;;;;;;11.13;4.32;;;;;;;;;;5125858;28;20032;-43
2023/10/23 11:32:40;;;;;;;5.28;4.10;;;;;;;;;;5126718;28;20087;-38
2023/10/23 11:35:07;;;;;;;9.80;4.38;;;;;;;;;;5127746;28;20023;-45
2023/10/23 11:37:43;;;;;;;10.40;4.43;;;;;;;;;;5109206;28;20038;-37
2023/10/23 11:40:11;;;;;;;10.32;4.50;;;;;;;;;;5127421;28;20059;-37
2023/10/23 11:42:45;;;;;;;7.15;4.10;;;;;;;;;;5127745;28;20208;-40
2023/10/23 11:45:11;;;;;;;10.45;4.75;;;;;;;;;;5108439;28;20036;-37
2023/10/23 11:47:38;;;;;;;13.80;5.18;;;;;;;;;;5125412;28;20094;-42
2023/10/23 11:50:15;;;;;;;12.60;5.22;;;;;;;;;;5125618;28;20023;-37
2023/10/23 11:52:44;;;;;;;9.73;5.60;;;;;;;;;;5125602;28;19950;-37
2023/10/23 11:55:12;;;;;;;10.40;5.25;;;;;;;;;;5125558;28;20071;-39
2023/10/23 11:57:42;;;;;;;11.48;5.68;;;;;;;;;;5126380;28;20032;-38
2023/10/23 12:00:11;;;;;;;9.35;5.30;;;;;;;;;;5109865;28;20066;-37
2023/10/23 12:02:42;;;;;;;9.23;5.25;;;;;;;;;;5127471;28;20020;-37
2023/10/23 12:05:12;;;;;;;8.13;4.78;;;;;;;;;;5127243;28;20357;-37
2023/10/23 12:07:40;;;;;;;11.30;4.53;;;;;;;;;;5126403;28;20028;-38
2023/10/23 12:10:08;;;;;;;9.02;4.72;;;;;;;;;;5127250;28;20064;-40
2023/10/23 12:12:36;;;;;;;12.00;4.45;;;;;;;;;;5127016;28;20033;-40
2023/10/23 12:15:03;;;;;;;26.75;4.95;;;;;;;;;;5108649;28;20096;-39
2023/10/23 12:17:30;;;;;;;20.38;5.10;;;;;;;;;;5126891;28;20011;-39
2023/10/23 12:19:57;;;;;;;18.08;4.47;;;;;;;;;;5126517;28;20024;-37
2023/10/23 12:22:24;;;;;;;12.48;4.28;;;;;;;;;;5127095;28;20035;-40
2023/10/23 12:24:50;;;;;;;11.07;4.10;;;;;;;;;;5126805;28;20020;-37
2023/10/23 12:27:17;;;;;;;11.02;4.00;;;;;;;;;;5126704;28;20035;-37
2023/10/23 12:29:44;;;;;;;13.32;4.15;;;;;;;;;;5126895;28;20175;-41
2023/10/23 12:32:12;;;;;;;10.90;3.75;;;;;;;;;;5127027;28;20093;-41
2023/10/23 12:34:40;;;;;;;9.10;3.58;;;;;;;;;;5126865;28;20036;-37
2023/10/23 12:37:07;;;;;;;15.15;4.60;;;;;;;;;;5126500;28;20192;-42
2023/10/23 12:39:34;;;;;;;16.77;3.90;;;;;;;;;;5126467;28;20026;-49
2023/10/23 12:42:00;;;;;;;17.25;4.63;;;;;;;;;;5126289;28;20068;-35
2023/10/23 12:44:27;;;;;;;14.70;4.22;;;;;;;;;;5126653;28;20175;-39
2023/10/23 12:46:54;;;;;;;23.30;4.53;;;;;;;;;;5126130;28;21712;-45
2023/10/23 12:49:20;;;;;;;19.25;4.18;;;;;;;;;;5126031;28;20039;-35
2023/10/23 12:51:47;;;;;;;18.58;4.72;;;;;;;;;;5126004;28;20053;-44
2023/10/23 12:54:14;;;;;;;19.83;4.07;;;;;;;;;;5126059;28;20027;-44
2023/10/23 12:56:40;;;;;;;19.17;4.32;;;;;;;;;;5125962;28;20020;-43
2023/10/23 12:59:07;;;;;;;14.23;4.15;;;;;;;;;;5107943;28;20051;-47
2023/10/23 13:01:34;;;;;;;11.68;3.58;;;;;;;;;;5126126;28;20343;-45
2023/10/23 13:04:00;;;;;;;19.33;4.45;;;;;;;;;;5125881;28;20033;-37
2023/10/23 13:06:27;;;;;;;33.88;5.03;;;;;;;;;;5126301;28;20192;-37
2023/10/23 13:08:54;;;;;;;40.05;6.38;;;;;;;;;;5126650;28;20078;-41
2023/10/23 13:11:22;;;;;;;36.17;5.57;;;;;;;;;;5125647;28;20311;-41
2023/10/23 13:13:48;;;;;;;20.60;4.82;;;;;;;;;;5126139;28;20047;-44
2023/10/23 13:16:15;;;;;;;18.75;4.50;;;;;;;;;;5125405;28;20019;-43
2023/10/23 13:18:42;;;;;;;19.92;5.35;;;;;;;;;;5125858;28;20046;-39
2023/10/23 13:21:08;;;;;;;24.02;5.45;;;;;;;;;;5126194;28;20312;-42
2023/10/23 13:23:35;;;;;;;22.55;5.53;;;;;;;;;;5125377;28;20023;-40
2023/10/23 13:26:03;;;;;;;17.92;4.68;;;;;;;;;;5125910;28;20260;-35
2023/10/23 13:28:30;;;;;;;15.02;5.43;;;;;;;;;;5125821;28;20090;-34
2023/10/23 13:30:56;;;;;;;25.42;5.60;;;;;;;;;;5126093;28;20024;-34
2023/10/23 13:33:24;;;;;;;22.58;6.18;;;;;;;;;;5125479;28;20088;-34
2023/10/23 13:35:50;;;;;;;18.77;5.43;;;;;;;;;;5125337;28;20027;-41
2023/10/23 13:38:17;;;;;;;15.93;5.05;;;;;;;;;;5125724;28;20026;-39
2023/10/23 13:40:44;;;;;;;9.90;5.72;;;;;;;;;;5125272;28;20113;-35
2023/10/23 13:43:10;;;;;;;15.32;4.97;;;;;;;;;;5125572;28;20023;-47
2023/10/23 13:45:37;;;;;;;15.05;4.97;;;;;;;;;;5125072;28;20416;-37
2023/10/23 13:48:04;;;;;;;15.77;5.00;;;;;;;;;;5125279;28;20027;-34
2023/10/23 13:50:32;;;;;;;15.70;4.72;;;;;;;;;;5125629;28;20039;-41
2023/10/23 13:53:00;;;;;;;23.90;5.10;;;;;;;;;;5125591;28;20019;-36
2023/10/23 13:55:26;;;;;;;16.60;4.47;;;;;;;;;;5125077;28;20367;-39
2023/10/23 13:57:53;;;;;;;20.85;5.20;;;;;;;;;;5124929;28;20200;-40
2023/10/23 14:00:20;;;;;;;19.05;4.93;;;;;;;;;;5124830;28;20036;-40
2023/10/23 14:02:47;;;;;;;12.57;4.50;;;;;;;;;;5125325;28;20091;-38
2023/10/23 14:05:15;;;;;;;12.48;4.40;;;;;;;;;;5124748;28;20261;-42
2023/10/23 14:07:44;;;;;;;19.20;4.30;;;;;;;;;;5125176;28;20043;-34
2023/10/23 14:10:11;;;;;;;12.30;4.00;;;;;;;;;;5124847;28;20031;-35
2023/10/23 14:12:37;;;;;;;10.50;3.60;;;;;;;;;;5124757;28;20031;-38
2023/10/23 14:15:05;;;;;;;14.50;4.07;;;;;;;;;;5124790;28;20019;-36
2023/10/23 14:17:32;;;;;;;8.32;3.70;;;;;;;;;;5124891;28;20072;-36
2023/10/23 14:19:59;;;;;;;11.55;3.47;;;;;;;;;;5124497;28;20031;-44
2023/10/23 14:22:25;;;;;;;9.48;3.50;;;;;;;;;;5124746;28;20020;-41
2023/10/23 14:24:52;;;;;;;6.93;3.90;;;;;;;;;;5124765;28;20062;-41
2023/10/23 14:27:19;;;;;;;6.57;3.97;;;;;;;;;;5124548;28;20327;-39
2023/10/23 14:29:45;;;;;;;10.15;3.58;;;;;;;;;;5124356;28;20238;-36
2023/10/23 14:32:12;;;;;;;16.98;4.25;;;;;;;;;;5127356;28;20253;-41
2023/10/23 14:34:39;;;;;;;10.02;4.13;;;;;;;;;;5110921;28;20092;-37
2023/10/23 14:37:06;;;;;;;14.27;3.58;;;;;;;;;;5110589;28;20064;-36
2023/10/23 14:39:32;;;;;;;14.82;4.82;;;;;;;;;;5128866;28;20035;-36